sensor_id;sensor_type;location;lat;lon;timestamp;temperature;humidity
23991;DHT22;12205;50.600;4.608;2024-01-11T00:00:45;-3.70;99.90
23991;DHT22;12205;50.600;4.608;2024-01-11T00:03:14;-3.70;99.90
23991;DHT22;12205;50.600;4.608;2024-01-11T00:05:41;-3.70;99.90
23991;DHT22;12205;50.600;4.608;2024-01-11T00:08:08;-3.70;99.90
23991;DHT22;12205;50.600;4.608;2024-01-11T00:10:36;-3.70;99.90
23991;DHT22;12205;50.600;4.608;2024-01-11T00:13:03;-3.70;99.90
23991;DHT22;12205;50.600;4.608;2024-01-11T00:15:30;-3.70;99.90
23991;DHT22;12205;50.600;4.608;2024-01-11T00:17:57;-3.80;99.90
23991;DHT22;12205;50.600;4.608;2024-01-11T00:20:25;-3.80;99.90
23991;DHT22;12205;50.600;4.608;2024-01-11T00:22:52;-3.80;99.90
23991;DHT22;12205;50.600;4.608;2024-01-11T00:25:19;-3.80;99.90
23991;DHT22;12205;50.600;4.608;2024-01-11T00:27:46;-3.70;99.90
23991;DHT22;12205;50.600;4.608;2024-01-11T00:30:13;-3.70;99.90
23991;DHT22;12205;50.600;4.608;2024-01-11T00:32:40;-3.70;99.90
23991;DHT22;12205;50.600;4.608;2024-01-11T00:35:07;-3.70;99.90
23991;DHT22;12205;50.600;4.608;2024-01-11T00:37:36;-3.70;99.90
23991;DHT22;12205;50.600;4.608;2024-01-11T00:40:03;-3.70;99.90
23991;DHT22;12205;50.600;4.608;2024-01-11T00:42:30;-3.70;99.90
23991;DHT22;12205;50.600;4.608;2024-01-11T00:44:57;-3.60;99.90
23991;DHT22;12205;50.600;4.608;2024-01-11T00:47:24;-3.60;99.90
23991;DHT22;12205;50.600;4.608;2024-01-11T00:49:52;-3.60;99.90
23991;DHT22;12205;50.600;4.608;2024-01-11T00:52:19;-3.60;99.90
23991;DHT22;12205;50.600;4.608;2024-01-11T00:54:48;-3.60;99.90
23991;DHT22;12205;50.600;4.608;2024-01-11T00:57:15;-3.60;99.90
23991;DHT22;12205;50.600;4.608;2024-01-11T00:59:42;-3.50;99.90
23991;DHT22;12205;50.600;4.608;2024-01-11T01:02:09;-3.50;99.90
23991;DHT22;12205;50.600;4.608;2024-01-11T01:04:37;-3.50;99.90
23991;DHT22;12205;50.600;4.608;2024-01-11T01:07:04;-3.50;99.90
23991;DHT22;12205;50.600;4.608;2024-01-11T01:09:32;-3.50;99.90
23991;DHT22;12205;50.600;4.608;2024-01-11T01:12:00;-3.50;99.90
23991;DHT22;12205;50.600;4.608;2024-01-11T01:14:27;-3.60;99.90
23991;DHT22;12205;50.600;4.608;2024-01-11T01:16:54;-3.60;99.90
23991;DHT22;12205;50.600;4.608;2024-01-11T01:19:21;-3.60;99.90
23991;DHT22;12205;50.600;4.608;2024-01-11T01:21:48;-3.60;99.90
23991;DHT22;12205;50.600;4.608;2024-01-11T01:24:15;-3.60;99.90
23991;DHT22;12205;50.600;4.608;2024-01-11T01:26:42;-3.60;99.90
23991;DHT22;12205;50.600;4.608;2024-01-11T01:29:10;-3.60;99.90
23991;DHT22;12205;50.600;4.608;2024-01-11T01:31:37;-3.60;99.90
23991;DHT22;12205;50.600;4.608;2024-01-11T01:34:04;-3.60;99.90
23991;DHT22;12205;50.600;4.608;2024-01-11T01:36:31;-3.60;99.90
23991;DHT22;12205;50.600;4.608;2024-01-11T01:38:58;-3.70;99.90
23991;DHT22;12205;50.600;4.608;2024-01-11T01:41:25;-3.70;99.90
23991;DHT22;12205;50.600;4.608;2024-01-11T01:43:52;-3.70;99.90
23991;DHT22;12205;50.600;4.608;2024-01-11T01:46:23;-3.70;99.90
23991;DHT22;12205;50.600;4.608;2024-01-11T01:48:50;-3.70;99.90
23991;DHT22;12205;50.600;4.608;2024-01-11T01:51:18;-3.70;99.90
23991;DHT22;12205;50.600;4.608;2024-01-11T01:53:45;-3.70;99.90
23991;DHT22;12205;50.600;4.608;2024-01-11T01:56:13;-3.70;99.90
23991;DHT22;12205;50.600;4.608;2024-01-11T01:58:40;-3.60;99.90
23991;DHT22;12205;50.600;4.608;2024-01-11T02:01:08;-3.70;99.90
23991;DHT22;12205;50.600;4.608;2024-01-11T02:03:37;-3.70;99.90
23991;DHT22;12205;50.600;4.608;2024-01-11T02:06:05;-3.70;99.90
23991;DHT22;12205;50.600;4.608;2024-01-11T02:08:32;-3.70;99.90
23991;DHT22;12205;50.600;4.608;2024-01-11T02:11:01;-3.60;99.90
23991;DHT22;12205;50.600;4.608;2024-01-11T02:13:28;-3.60;99.90
23991;DHT22;12205;50.600;4.608;2024-01-11T02:15:55;-3.60;99.90
23991;DHT22;12205;50.600;4.608;2024-01-11T02:18:22;-3.60;99.90
23991;DHT22;12205;50.600;4.608;2024-01-11T02:20:50;-3.60;99.90
23991;DHT22;12205;50.600;4.608;2024-01-11T02:23:20;-3.60;99.90
23991;DHT22;12205;50.600;4.608;2024-01-11T02:25:49;-3.60;99.90
23991;DHT22;12205;50.600;4.608;2024-01-11T02:28:17;-3.60;99.90
23991;DHT22;12205;50.600;4.608;2024-01-11T02:30:44;-3.60;99.90
23991;DHT22;12205;50.600;4.608;2024-01-11T02:33:11;-3.70;99.90
23991;DHT22;12205;50.600;4.608;2024-01-11T02:35:41;-3.70;99.90
23991;DHT22;12205;50.600;4.608;2024-01-11T02:38:08;-3.70;99.90
23991;DHT22;12205;50.600;4.608;2024-01-11T02:40:37;-3.70;99.90
23991;DHT22;12205;50.600;4.608;2024-01-11T02:43:10;-3.70;99.90
23991;DHT22;12205;50.600;4.608;2024-01-11T02:45:37;-3.70;99.90
23991;DHT22;12205;50.600;4.608;2024-01-11T02:48:04;-3.70;99.90
23991;DHT22;12205;50.600;4.608;2024-01-11T02:50:32;-3.70;99.90
23991;DHT22;12205;50.600;4.608;2024-01-11T02:52:59;-3.80;99.90
23991;DHT22;12205;50.600;4.608;2024-01-11T02:55:26;-3.80;99.90
23991;DHT22;12205;50.600;4.608;2024-01-11T02:57:53;-3.80;99.90
23991;DHT22;12205;50.600;4.608;2024-01-11T03:00:21;-3.80;99.90
23991;DHT22;12205;50.600;4.608;2024-01-11T03:02:48;-3.80;99.90
23991;DHT22;12205;50.600;4.608;2024-01-11T03:05:15;-3.80;99.90
23991;DHT22;12205;50.600;4.608;2024-01-11T03:07:42;-3.80;99.90
23991;DHT22;12205;50.600;4.608;2024-01-11T03:10:09;-3.80;99.90
23991;DHT22;12205;50.600;4.608;2024-01-11T03:12:36;-3.90;99.90
23991;DHT22;12205;50.600;4.608;2024-01-11T03:15:03;-3.80;99.90
23991;DHT22;12205;50.600;4.608;2024-01-11T03:17:33;-3.80;99.90
23991;DHT22;12205;50.600;4.608;2024-01-11T03:20:00;-3.90;99.90
23991;DHT22;12205;50.600;4.608;2024-01-11T03:22:29;-3.90;99.90
23991;DHT22;12205;50.600;4.608;2024-01-11T03:24:56;-3.90;99.90
23991;DHT22;12205;50.600;4.608;2024-01-11T03:27:23;-3.90;99.90
23991;DHT22;12205;50.600;4.608;2024-01-11T03:29:50;-3.90;99.90
23991;DHT22;12205;50.600;4.608;2024-01-11T03:32:17;-3.90;99.90
23991;DHT22;12205;50.600;4.608;2024-01-11T03:34:46;-3.90;99.90
23991;DHT22;12205;50.600;4.608;2024-01-11T03:37:13;-3.90;99.90
23991;DHT22;12205;50.600;4.608;2024-01-11T03:39:39;-4.00;99.90
23991;DHT22;12205;50.600;4.608;2024-01-11T03:42:06;-4.00;99.90
23991;DHT22;12205;50.600;4.608;2024-01-11T03:44:35;-4.00;99.90
23991;DHT22;12205;50.600;4.608;2024-01-11T03:47:03;-4.00;99.90
23991;DHT22;12205;50.600;4.608;2024-01-11T03:49:30;-4.10;99.90
23991;DHT22;12205;50.600;4.608;2024-01-11T03:51:58;-4.00;99.90
23991;DHT22;12205;50.600;4.608;2024-01-11T03:54:25;-4.10;99.90
23991;DHT22;12205;50.600;4.608;2024-01-11T03:56:52;-4.10;99.90
23991;DHT22;12205;50.600;4.608;2024-01-11T03:59:19;-4.10;99.90
23991;DHT22;12205;50.600;4.608;2024-01-11T04:01:46;-4.10;99.90
23991;DHT22;12205;50.600;4.608;2024-01-11T04:04:13;-4.10;99.90
23991;DHT22;12205;50.600;4.608;2024-01-11T04:06:39;-4.20;99.90
23991;DHT22;12205;50.600;4.608;2024-01-11T04:09:08;-4.20;99.90
23991;DHT22;12205;50.600;4.608;2024-01-11T04:11:35;-4.20;99.90
23991;DHT22;12205;50.600;4.608;2024-01-11T04:14:02;-4.30;99.90
23991;DHT22;12205;50.600;4.608;2024-01-11T04:16:29;-4.30;99.90
23991;DHT22;12205;50.600;4.608;2024-01-11T04:18:55;-4.30;99.90
23991;DHT22;12205;50.600;4.608;2024-01-11T04:21:23;-4.30;99.90
23991;DHT22;12205;50.600;4.608;2024-01-11T04:23:50;-4.30;99.90
23991;DHT22;12205;50.600;4.608;2024-01-11T04:26:18;-4.30;99.90
23991;DHT22;12205;50.600;4.608;2024-01-11T04:28:45;-4.30;99.90
23991;DHT22;12205;50.600;4.608;2024-01-11T04:31:13;-4.30;99.90
23991;DHT22;12205;50.600;4.608;2024-01-11T04:33:42;-4.40;99.90
23991;DHT22;12205;50.600;4.608;2024-01-11T04:36:10;-4.40;99.90
23991;DHT22;12205;50.600;4.608;2024-01-11T04:38:37;-4.40;99.90
23991;DHT22;12205;50.600;4.608;2024-01-11T04:41:07;-4.40;99.90
23991;DHT22;12205;50.600;4.608;2024-01-11T04:43:37;-4.40;99.90
23991;DHT22;12205;50.600;4.608;2024-01-11T04:46:12;-4.40;99.90
23991;DHT22;12205;50.600;4.608;2024-01-11T04:48:39;-4.40;99.90
23991;DHT22;12205;50.600;4.608;2024-01-11T04:51:06;-4.50;99.90
23991;DHT22;12205;50.600;4.608;2024-01-11T04:53:33;-4.50;99.90
23991;DHT22;12205;50.600;4.608;2024-01-11T04:56:02;-4.50;99.90
23991;DHT22;12205;50.600;4.608;2024-01-11T04:58:29;-4.50;99.90
23991;DHT22;12205;50.600;4.608;2024-01-11T05:00:58;-4.50;99.90
23991;DHT22;12205;50.600;4.608;2024-01-11T05:03:25;-4.50;99.90
23991;DHT22;12205;50.600;4.608;2024-01-11T05:05:52;-4.50;99.90
23991;DHT22;12205;50.600;4.608;2024-01-11T05:08:18;-4.60;99.90
23991;DHT22;12205;50.600;4.608;2024-01-11T05:10:45;-4.60;99.90
23991;DHT22;12205;50.600;4.608;2024-01-11T05:13:12;-4.50;99.90
23991;DHT22;12205;50.600;4.608;2024-01-11T05:15:39;-4.60;99.90
23991;DHT22;12205;50.600;4.608;2024-01-11T05:18:08;-4.50;99.90
23991;DHT22;12205;50.600;4.608;2024-01-11T05:20:35;-4.50;99.90
23991;DHT22;12205;50.600;4.608;2024-01-11T05:23:02;-4.50;99.90
23991;DHT22;12205;50.600;4.608;2024-01-11T05:25:29;-4.50;99.90
23991;DHT22;12205;50.600;4.608;2024-01-11T05:27:59;-4.50;99.90
23991;DHT22;12205;50.600;4.608;2024-01-11T05:30:26;-4.50;99.90
23991;DHT22;12205;50.600;4.608;2024-01-11T05:32:53;-4.50;99.90
23991;DHT22;12205;50.600;4.608;2024-01-11T05:35:21;-4.50;99.90
23991;DHT22;12205;50.600;4.608;2024-01-11T05:37:49;-4.50;99.90
23991;DHT22;12205;50.600;4.608;2024-01-11T05:40:16;-4.50;99.90
23991;DHT22;12205;50.600;4.608;2024-01-11T05:42:43;-4.40;99.90
23991;DHT22;12205;50.600;4.608;2024-01-11T05:45:10;-4.40;99.90
23991;DHT22;12205;50.600;4.608;2024-01-11T05:47:37;-4.40;99.90
23991;DHT22;12205;50.600;4.608;2024-01-11T05:50:05;-4.40;99.90
23991;DHT22;12205;50.600;4.608;2024-01-11T05:52:33;-4.40;99.90
23991;DHT22;12205;50.600;4.608;2024-01-11T05:55:00;-4.30;99.90
23991;DHT22;12205;50.600;4.608;2024-01-11T05:57:27;-4.40;99.90
23991;DHT22;12205;50.600;4.608;2024-01-11T05:59:54;-4.40;99.90
23991;DHT22;12205;50.600;4.608;2024-01-11T06:02:21;-4.30;99.90
23991;DHT22;12205;50.600;4.608;2024-01-11T06:04:48;-4.40;99.90
23991;DHT22;12205;50.600;4.608;2024-01-11T06:07:16;-4.30;99.90
23991;DHT22;12205;50.600;4.608;2024-01-11T06:09:44;-4.30;99.90
23991;DHT22;12205;50.600;4.608;2024-01-11T06:12:11;-4.30;99.90
23991;DHT22;12205;50.600;4.608;2024-01-11T06:14:38;-4.30;99.90
23991;DHT22;12205;50.600;4.608;2024-01-11T06:17:05;-4.40;99.90
23991;DHT22;12205;50.600;4.608;2024-01-11T06:19:32;-4.40;99.90
23991;DHT22;12205;50.600;4.608;2024-01-11T06:21:59;-4.40;99.90
23991;DHT22;12205;50.600;4.608;2024-01-11T06:24:26;-4.40;99.90
23991;DHT22;12205;50.600;4.608;2024-01-11T06:26:54;-4.40;99.90
23991;DHT22;12205;50.600;4.608;2024-01-11T06:29:21;-4.40;99.90
23991;DHT22;12205;50.600;4.608;2024-01-11T06:31:48;-4.40;99.90
23991;DHT22;12205;50.600;4.608;2024-01-11T06:34:15;-4.30;99.90
23991;DHT22;12205;50.600;4.608;2024-01-11T06:36:43;-4.30;99.90
23991;DHT22;12205;50.600;4.608;2024-01-11T06:39:10;-4.30;99.90
23991;DHT22;12205;50.600;4.608;2024-01-11T06:41:38;-4.40;99.90
23991;DHT22;12205;50.600;4.608;2024-01-11T06:44:06;-4.30;99.90
23991;DHT22;12205;50.600;4.608;2024-01-11T06:46:33;-4.30;99.90
23991;DHT22;12205;50.600;4.608;2024-01-11T06:49:01;-4.30;99.90
23991;DHT22;12205;50.600;4.608;2024-01-11T06:51:29;-4.40;99.90
23991;DHT22;12205;50.600;4.608;2024-01-11T06:53:56;-4.30;99.90
23991;DHT22;12205;50.600;4.608;2024-01-11T06:56:22;-4.30;99.90
23991;DHT22;12205;50.600;4.608;2024-01-11T06:58:49;-4.30;99.90
23991;DHT22;12205;50.600;4.608;2024-01-11T07:01:18;-4.30;99.90
23991;DHT22;12205;50.600;4.608;2024-01-11T07:03:45;-4.30;99.90
23991;DHT22;12205;50.600;4.608;2024-01-11T07:06:12;-4.30;99.90
23991;DHT22;12205;50.600;4.608;2024-01-11T07:08:39;-4.30;99.90
23991;DHT22;12205;50.600;4.608;2024-01-11T07:11:05;-4.30;99.90
23991;DHT22;12205;50.600;4.608;2024-01-11T07:13:33;-4.40;99.90
23991;DHT22;12205;50.600;4.608;2024-01-11T07:16:00;-4.40;99.90
23991;DHT22;12205;50.600;4.608;2024-01-11T07:18:30;-4.40;99.90
23991;DHT22;12205;50.600;4.608;2024-01-11T07:20:57;-4.40;99.90
23991;DHT22;12205;50.600;4.608;2024-01-11T07:23:24;-4.30;99.90
23991;DHT22;12205;50.600;4.608;2024-01-11T07:25:51;-4.40;99.90
23991;DHT22;12205;50.600;4.608;2024-01-11T07:28:18;-4.40;99.90
23991;DHT22;12205;50.600;4.608;2024-01-11T07:30:45;-4.40;99.90
23991;DHT22;12205;50.600;4.608;2024-01-11T07:33:12;-4.40;99.90
23991;DHT22;12205;50.600;4.608;2024-01-11T07:35:41;-4.30;99.90
23991;DHT22;12205;50.600;4.608;2024-01-11T07:38:08;-4.40;99.90
23991;DHT22;12205;50.600;4.608;2024-01-11T07:40:35;-4.40;99.90
23991;DHT22;12205;50.600;4.608;2024-01-11T07:43:01;-4.40;99.90
23991;DHT22;12205;50.600;4.608;2024-01-11T07:45:29;-4.40;99.90
23991;DHT22;12205;50.600;4.608;2024-01-11T07:47:56;-4.40;99.90
23991;DHT22;12205;50.600;4.608;2024-01-11T07:50:23;-4.40;99.90
23991;DHT22;12205;50.600;4.608;2024-01-11T07:52:51;-4.40;99.90
23991;DHT22;12205;50.600;4.608;2024-01-11T07:55:18;-4.40;99.90
23991;DHT22;12205;50.600;4.608;2024-01-11T07:57:49;-4.40;99.90
23991;DHT22;12205;50.600;4.608;2024-01-11T08:00:16;-4.40;99.90
23991;DHT22;12205;50.600;4.608;2024-01-11T08:02:43;-4.40;99.90
23991;DHT22;12205;50.600;4.608;2024-01-11T08:05:11;-4.40;99.90
23991;DHT22;12205;50.600;4.608;2024-01-11T08:07:38;-4.30;99.90
23991;DHT22;12205;50.600;4.608;2024-01-11T08:10:07;-4.30;99.90
23991;DHT22;12205;50.600;4.608;2024-01-11T08:12:35;-4.30;99.90
23991;DHT22;12205;50.600;4.608;2024-01-11T08:15:02;-4.30;99.90
23991;DHT22;12205;50.600;4.608;2024-01-11T08:17:29;-4.30;99.90
23991;DHT22;12205;50.600;4.608;2024-01-11T08:19:56;-4.30;99.90
23991;DHT22;12205;50.600;4.608;2024-01-11T08:22:23;-4.30;99.90
23991;DHT22;12205;50.600;4.608;2024-01-11T08:24:49;-4.30;99.90
23991;DHT22;12205;50.600;4.608;2024-01-11T08:27:18;-4.30;99.90
23991;DHT22;12205;50.600;4.608;2024-01-11T08:29:45;-4.30;99.90
23991;DHT22;12205;50.600;4.608;2024-01-11T08:32:12;-4.20;99.90
23991;DHT22;12205;50.600;4.608;2024-01-11T08:34:39;-4.20;99.90
23991;DHT22;12205;50.600;4.608;2024-01-11T08:37:06;-4.20;99.90
23991;DHT22;12205;50.600;4.608;2024-01-11T08:39:34;-4.20;99.90
23991;DHT22;12205;50.600;4.608;2024-01-11T08:42:00;-4.10;99.90
23991;DHT22;12205;50.600;4.608;2024-01-11T08:44:29;-4.10;99.90
23991;DHT22;12205;50.600;4.608;2024-01-11T08:46:56;-4.10;99.90
23991;DHT22;12205;50.600;4.608;2024-01-11T08:49:24;-4.00;99.90
23991;DHT22;12205;50.600;4.608;2024-01-11T08:51:52;-4.00;99.90
23991;DHT22;12205;50.600;4.608;2024-01-11T08:54:18;-4.00;99.90
23991;DHT22;12205;50.600;4.608;2024-01-11T08:56:46;-4.00;99.90
23991;DHT22;12205;50.600;4.608;2024-01-11T08:59:14;-3.90;99.90
23991;DHT22;12205;50.600;4.608;2024-01-11T09:01:42;-3.90;99.90
23991;DHT22;12205;50.600;4.608;2024-01-11T09:04:09;-3.90;99.90
23991;DHT22;12205;50.600;4.608;2024-01-11T09:06:36;-3.80;99.90
23991;DHT22;12205;50.600;4.608;2024-01-11T09:09:03;-3.80;99.90
23991;DHT22;12205;50.600;4.608;2024-01-11T09:11:35;-3.80;99.90
23991;DHT22;12205;50.600;4.608;2024-01-11T09:14:02;-3.70;99.90
23991;DHT22;12205;50.600;4.608;2024-01-11T09:16:29;-3.70;99.90
23991;DHT22;12205;50.600;4.608;2024-01-11T09:18:58;-3.70;99.90
23991;DHT22;12205;50.600;4.608;2024-01-11T09:21:25;-3.60;99.90
23991;DHT22;12205;50.600;4.608;2024-01-11T09:23:52;-3.60;99.90
23991;DHT22;12205;50.600;4.608;2024-01-11T09:26:19;-3.60;99.90
23991;DHT22;12205;50.600;4.608;2024-01-11T09:28:46;-3.50;99.90
23991;DHT22;12205;50.600;4.608;2024-01-11T09:31:14;-3.50;99.90
23991;DHT22;12205;50.600;4.608;2024-01-11T09:33:40;-3.40;99.90
23991;DHT22;12205;50.600;4.608;2024-01-11T09:36:12;-3.40;99.90
23991;DHT22;12205;50.600;4.608;2024-01-11T09:38:39;-3.30;99.90
23991;DHT22;12205;50.600;4.608;2024-01-11T09:41:07;-3.30;99.90
23991;DHT22;12205;50.600;4.608;2024-01-11T09:43:35;-3.20;99.90
23991;DHT22;12205;50.600;4.608;2024-01-11T09:46:04;-3.20;99.90
23991;DHT22;12205;50.600;4.608;2024-01-11T09:48:32;-3.20;99.90
23991;DHT22;12205;50.600;4.608;2024-01-11T09:51:01;-3.10;99.90
23991;DHT22;12205;50.600;4.608;2024-01-11T09:53:32;-3.10;99.90
23991;DHT22;12205;50.600;4.608;2024-01-11T09:55:59;-3.10;99.90
23991;DHT22;12205;50.600;4.608;2024-01-11T09:58:26;-3.00;99.90
23991;DHT22;12205;50.600;4.608;2024-01-11T10:00:54;-3.00;99.90
23991;DHT22;12205;50.600;4.608;2024-01-11T10:03:23;-2.90;99.90
23991;DHT22;12205;50.600;4.608;2024-01-11T10:05:51;-2.90;99.90
23991;DHT22;12205;50.600;4.608;2024-01-11T10:08:19;-2.90;99.90
23991;DHT22;12205;50.600;4.608;2024-01-11T10:10:49;-2.80;99.90
23991;DHT22;12205;50.600;4.608;2024-01-11T10:13:16;-2.80;99.90
23991;DHT22;12205;50.600;4.608;2024-01-11T10:15:43;-2.70;99.90
23991;DHT22;12205;50.600;4.608;2024-01-11T10:18:10;-2.70;99.90
23991;DHT22;12205;50.600;4.608;2024-01-11T10:20:38;-2.70;99.90
23991;DHT22;12205;50.600;4.608;2024-01-11T10:23:05;-2.60;99.90
23991;DHT22;12205;50.600;4.608;2024-01-11T10:25:31;-2.50;99.90
23991;DHT22;12205;50.600;4.608;2024-01-11T10:28:00;-2.50;99.90
23991;DHT22;12205;50.600;4.608;2024-01-11T10:30:27;-2.50;99.90
23991;DHT22;12205;50.600;4.608;2024-01-11T10:32:54;-2.40;99.90
23991;DHT22;12205;50.600;4.608;2024-01-11T10:35:23;-2.40;99.90
23991;DHT22;12205;50.600;4.608;2024-01-11T10:37:51;-2.30;99.90
23991;DHT22;12205;50.600;4.608;2024-01-11T10:40:20;-2.30;99.90
23991;DHT22;12205;50.600;4.608;2024-01-11T10:42:52;-2.20;99.90
23991;DHT22;12205;50.600;4.608;2024-01-11T10:45:21;-2.20;99.90
23991;DHT22;12205;50.600;4.608;2024-01-11T10:47:53;-2.20;99.90
23991;DHT22;12205;50.600;4.608;2024-01-11T10:50:22;-2.10;99.90
23991;DHT22;12205;50.600;4.608;2024-01-11T10:53:03;-2.00;99.90
23991;DHT22;12205;50.600;4.608;2024-01-11T10:55:32;-2.00;99.90
23991;DHT22;12205;50.600;4.608;2024-01-11T10:58:00;-1.90;99.90
23991;DHT22;12205;50.600;4.608;2024-01-11T11:00:29;-1.80;99.90
23991;DHT22;12205;50.600;4.608;2024-01-11T11:02:58;-1.80;99.90
23991;DHT22;12205;50.600;4.608;2024-01-11T11:05:27;-1.70;99.90
23991;DHT22;12205;50.600;4.608;2024-01-11T11:07:55;-1.60;99.90
23991;DHT22;12205;50.600;4.608;2024-01-11T11:10:24;-1.50;99.90
23991;DHT22;12205;50.600;4.608;2024-01-11T11:12:54;-1.50;99.90
23991;DHT22;12205;50.600;4.608;2024-01-11T11:15:23;-1.40;99.90
23991;DHT22;12205;50.600;4.608;2024-01-11T11:17:52;-1.40;99.90
23991;DHT22;12205;50.600;4.608;2024-01-11T11:20:19;-1.30;99.90
23991;DHT22;12205;50.600;4.608;2024-01-11T11:22:48;-1.30;99.90
23991;DHT22;12205;50.600;4.608;2024-01-11T11:25:30;-1.20;99.90
23991;DHT22;12205;50.600;4.608;2024-01-11T11:27:58;-1.10;99.90
23991;DHT22;12205;50.600;4.608;2024-01-11T11:30:27;-1.10;99.90
23991;DHT22;12205;50.600;4.608;2024-01-11T11:32:55;-1.00;99.90
23991;DHT22;12205;50.600;4.608;2024-01-11T11:35:23;-1.00;99.90
23991;DHT22;12205;50.600;4.608;2024-01-11T11:37:55;-0.90;99.90
23991;DHT22;12205;50.600;4.608;2024-01-11T11:40:22;-0.80;99.90
23991;DHT22;12205;50.600;4.608;2024-01-11T11:42:58;-0.80;99.90
23991;DHT22;12205;50.600;4.608;2024-01-11T11:45:26;-0.70;99.90
23991;DHT22;12205;50.600;4.608;2024-01-11T11:47:54;-0.70;99.90
23991;DHT22;12205;50.600;4.608;2024-01-11T11:50:22;-0.60;99.90
23991;DHT22;12205;50.600;4.608;2024-01-11T11:52:54;-0.60;99.90
23991;DHT22;12205;50.600;4.608;2024-01-11T11:55:22;-0.50;99.90
23991;DHT22;12205;50.600;4.608;2024-01-11T11:57:50;-0.40;99.90
23991;DHT22;12205;50.600;4.608;2024-01-11T12:00:17;-0.30;99.90
23991;DHT22;12205;50.600;4.608;2024-01-11T12:02:46;-0.30;99.90
23991;DHT22;12205;50.600;4.608;2024-01-11T12:05:17;-0.30;99.90
23991;DHT22;12205;50.600;4.608;2024-01-11T12:07:44;-0.20;99.90
23991;DHT22;12205;50.600;4.608;2024-01-11T12:10:12;-0.10;99.90
23991;DHT22;12205;50.600;4.608;2024-01-11T12:12:39;-0.10;99.90
23991;DHT22;12205;50.600;4.608;2024-01-11T12:15:08;0.00;99.90
23991;DHT22;12205;50.600;4.608;2024-01-11T12:17:35;0.10;99.90
23991;DHT22;12205;50.600;4.608;2024-01-11T12:20:06;0.20;99.90
23991;DHT22;12205;50.600;4.608;2024-01-11T12:22:34;0.20;99.90
23991;DHT22;12205;50.600;4.608;2024-01-11T12:25:02;0.30;99.90
23991;DHT22;12205;50.600;4.608;2024-01-11T12:27:30;0.40;99.90
23991;DHT22;12205;50.600;4.608;2024-01-11T12:29:57;0.50;99.90
23991;DHT22;12205;50.600;4.608;2024-01-11T12:32:24;0.50;99.90
23991;DHT22;12205;50.600;4.608;2024-01-11T12:34:52;0.60;99.90
23991;DHT22;12205;50.600;4.608;2024-01-11T12:37:20;0.70;99.90
23991;DHT22;12205;50.600;4.608;2024-01-11T12:39:49;0.80;99.90
23991;DHT22;12205;50.600;4.608;2024-01-11T12:42:16;0.90;99.90
23991;DHT22;12205;50.600;4.608;2024-01-11T12:44:43;1.30;99.90
23991;DHT22;12205;50.600;4.608;2024-01-11T12:47:10;2.20;99.90
23991;DHT22;12205;50.600;4.608;2024-01-11T12:49:37;3.60;99.90
23991;DHT22;12205;50.600;4.608;2024-01-11T12:52:04;5.30;99.90
23991;DHT22;12205;50.600;4.608;2024-01-11T12:54:32;6.90;99.90
23991;DHT22;12205;50.600;4.608;2024-01-11T12:57:01;8.60;99.90
23991;DHT22;12205;50.600;4.608;2024-01-11T12:59:29;10.00;99.90
23991;DHT22;12205;50.600;4.608;2024-01-11T13:01:56;11.40;99.90
23991;DHT22;12205;50.600;4.608;2024-01-11T13:04:25;12.60;99.90
23991;DHT22;12205;50.600;4.608;2024-01-11T13:06:52;13.60;99.90
23991;DHT22;12205;50.600;4.608;2024-01-11T13:09:19;14.50;96.70
23991;DHT22;12205;50.600;4.608;2024-01-11T13:11:46;15.00;91.00
23991;DHT22;12205;50.600;4.608;2024-01-11T13:14:14;15.40;87.80
23991;DHT22;12205;50.600;4.608;2024-01-11T13:16:44;15.80;83.30
23991;DHT22;12205;50.600;4.608;2024-01-11T13:19:12;16.30;81.20
23991;DHT22;12205;50.600;4.608;2024-01-11T13:21:39;16.70;74.00
23991;DHT22;12205;50.600;4.608;2024-01-11T13:24:06;17.00;72.60
23991;DHT22;12205;50.600;4.608;2024-01-11T13:26:34;17.30;70.10
23991;DHT22;12205;50.600;4.608;2024-01-11T13:29:02;17.60;69.20
23991;DHT22;12205;50.600;4.608;2024-01-11T13:31:31;17.90;68.30
23991;DHT22;12205;50.600;4.608;2024-01-11T13:33:58;18.20;65.20
23991;DHT22;12205;50.600;4.608;2024-01-11T13:36:25;18.30;63.70
23991;DHT22;12205;50.600;4.608;2024-01-11T13:38:52;18.50;63.00
23991;DHT22;12205;50.600;4.608;2024-01-11T13:41:19;18.80;61.60
23991;DHT22;12205;50.600;4.608;2024-01-11T13:43:46;18.90;59.80
23991;DHT22;12205;50.600;4.608;2024-01-11T13:46:13;18.90;57.00
23991;DHT22;12205;50.600;4.608;2024-01-11T13:48:46;18.80;56.80
23991;DHT22;12205;50.600;4.608;2024-01-11T13:51:13;18.70;56.30
23991;DHT22;12205;50.600;4.608;2024-01-11T13:53:41;18.40;55.50
23991;DHT22;12205;50.600;4.608;2024-01-11T13:56:08;17.30;55.40
23991;DHT22;12205;50.600;4.608;2024-01-11T13:58:35;15.70;56.30
23991;DHT22;12205;50.600;4.608;2024-01-11T14:01:02;14.20;57.80
23991;DHT22;12205;50.600;4.608;2024-01-11T14:03:29;12.80;60.00
23991;DHT22;12205;50.600;4.608;2024-01-11T14:05:58;11.60;63.60
23991;DHT22;12205;50.600;4.608;2024-01-11T14:08:26;10.60;66.70
23991;DHT22;12205;50.600;4.608;2024-01-11T14:10:53;9.60;69.40
23991;DHT22;12205;50.600;4.608;2024-01-11T14:13:20;8.80;72.90
23991;DHT22;12205;50.600;4.608;2024-01-11T14:15:47;8.00;77.80
23991;DHT22;12205;50.600;4.608;2024-01-11T14:18:16;7.30;81.20
23991;DHT22;12205;50.600;4.608;2024-01-11T14:20:44;6.80;84.70
23991;DHT22;12205;50.600;4.608;2024-01-11T14:23:12;6.30;89.10
23991;DHT22;12205;50.600;4.608;2024-01-11T14:25:39;5.90;90.90
23991;DHT22;12205;50.600;4.608;2024-01-11T14:28:06;5.50;92.20
23991;DHT22;12205;50.600;4.608;2024-01-11T14:30:33;5.20;94.10
23991;DHT22;12205;50.600;4.608;2024-01-11T14:33:01;4.80;95.70
23991;DHT22;12205;50.600;4.608;2024-01-11T14:35:28;4.50;97.10
23991;DHT22;12205;50.600;4.608;2024-01-11T14:37:55;4.20;99.30
23991;DHT22;12205;50.600;4.608;2024-01-11T14:40:23;3.90;99.90
23991;DHT22;12205;50.600;4.608;2024-01-11T14:42:50;3.70;99.90
23991;DHT22;12205;50.600;4.608;2024-01-11T14:45:17;3.50;99.90
23991;DHT22;12205;50.600;4.608;2024-01-11T14:47:44;3.40;99.90
23991;DHT22;12205;50.600;4.608;2024-01-11T14:50:11;3.20;99.90
23991;DHT22;12205;50.600;4.608;2024-01-11T14:52:38;3.10;99.90
23991;DHT22;12205;50.600;4.608;2024-01-11T14:55:06;3.00;99.90
23991;DHT22;12205;50.600;4.608;2024-01-11T14:57:36;2.90;99.90
23991;DHT22;12205;50.600;4.608;2024-01-11T15:00:04;2.80;99.90
23991;DHT22;12205;50.600;4.608;2024-01-11T15:02:33;2.70;99.90
23991;DHT22;12205;50.600;4.608;2024-01-11T15:05:00;2.60;99.90
23991;DHT22;12205;50.600;4.608;2024-01-11T15:07:27;2.50;99.90
23991;DHT22;12205;50.600;4.608;2024-01-11T15:09:54;2.50;99.90
23991;DHT22;12205;50.600;4.608;2024-01-11T15:12:21;2.40;99.90
23991;DHT22;12205;50.600;4.608;2024-01-11T15:14:49;2.40;99.90
23991;DHT22;12205;50.600;4.608;2024-01-11T15:17:16;2.30;99.90
23991;DHT22;12205;50.600;4.608;2024-01-11T15:19:43;2.20;99.90
23991;DHT22;12205;50.600;4.608;2024-01-11T15:22:10;2.20;99.90
23991;DHT22;12205;50.600;4.608;2024-01-11T15:24:40;2.10;99.90
23991;DHT22;12205;50.600;4.608;2024-01-11T15:27:07;2.00;99.90
23991;DHT22;12205;50.600;4.608;2024-01-11T15:29:34;1.90;99.90
23991;DHT22;12205;50.600;4.608;2024-01-11T15:32:02;1.90;99.90
23991;DHT22;12205;50.600;4.608;2024-01-11T15:34:29;1.80;99.90